Terminal Aerodrome Forecast
Issued by NWS Goodland, KS

Home | Current Version | Previous Version | Text Only | Print | Product List | Glossary On
Versions: 1 2 3 4 5 6 7 8 9 10 11 12 13 14
519
FTUS43 KGLD 221912 AAC
TAFGLD
TAF AMD
KGLD 221912Z 2219/2318 04012KT P6SM VCSH OVC120
      TEMPO 2219/2222 -TSRA SCT090CB OVC110
     FM230100 VRB06KT P6SM SCT130=

USA.gov is the U.S. government's official web portal to all federal, state and local government web resources and services.